sensor_id;sensor_type;location;lat;lon;timestamp;pressure;altitude;pressure_sealevel;temperature;humidity
29315;BME280;16320;53.954;9.506;2023-08-06T00:01:44;100762.22;;;15.96;100.00
29315;BME280;16320;53.954;9.506;2023-08-06T00:04:48;100762.22;;;15.96;100.00
29315;BME280;16320;53.954;9.506;2023-08-06T00:07:53;100747.16;;;15.96;100.00
29315;BME280;16320;53.954;9.506;2023-08-06T00:10:57;100743.38;;;15.87;100.00
29315;BME280;16320;53.954;9.506;2023-08-06T00:14:01;100733.63;;;15.88;100.00
29315;BME280;16320;53.954;9.506;2023-08-06T00:17:06;100736.16;;;15.89;100.00
29315;BME280;16320;53.954;9.506;2023-08-06T00:20:11;100738.81;;;15.89;100.00
29315;BME280;16320;53.954;9.506;2023-08-06T00:23:15;100743.13;;;15.90;100.00
29315;BME280;16320;53.954;9.506;2023-08-06T00:26:19;100742.91;;;15.93;100.00
29315;BME280;16320;53.954;9.506;2023-08-06T00:29:24;100750.13;;;15.91;100.00
29315;BME280;16320;53.954;9.506;2023-08-06T00:32:28;100740.75;;;15.87;100.00
29315;BME280;16320;53.954;9.506;2023-08-06T00:35:33;100741.69;;;15.86;100.00
29315;BME280;16320;53.954;9.506;2023-08-06T00:38:37;100738.53;;;15.81;100.00
29315;BME280;16320;53.954;9.506;2023-08-06T00:41:41;100733.56;;;15.77;100.00
29315;BME280;16320;53.954;9.506;2023-08-06T00:44:46;100726.66;;;15.74;100.00
29315;BME280;16320;53.954;9.506;2023-08-06T00:47:51;100723.06;;;15.75;100.00
29315;BME280;16320;53.954;9.506;2023-08-06T00:50:58;100717.75;;;15.75;100.00
29315;BME280;16320;53.954;9.506;2023-08-06T00:54:04;100724.00;;;15.74;100.00
29315;BME280;16320;53.954;9.506;2023-08-06T00:57:09;100726.66;;;15.74;100.00
29315;BME280;16320;53.954;9.506;2023-08-06T01:00:14;100717.56;;;15.78;100.00
29315;BME280;16320;53.954;9.506;2023-08-06T01:03:18;100703.91;;;15.71;100.00
29315;BME280;16320;53.954;9.506;2023-08-06T01:06:39;100699.69;;;15.69;100.00
29315;BME280;16320;53.954;9.506;2023-08-06T01:10:19;100703.81;;;15.73;100.00
29315;BME280;16320;53.954;9.506;2023-08-06T01:13:41;100712.47;;;15.75;100.00
29315;BME280;16320;53.954;9.506;2023-08-06T01:16:50;100704.97;;;15.69;100.00
29315;BME280;16320;53.954;9.506;2023-08-06T01:19:55;100705.69;;;15.71;100.00
29315;BME280;16320;53.954;9.506;2023-08-06T01:22:59;100710.75;;;15.74;100.00
29315;BME280;16320;53.954;9.506;2023-08-06T01:26:26;100704.03;;;15.70;100.00
29315;BME280;16320;53.954;9.506;2023-08-06T01:29:39;100705.69;;;15.71;100.00
29315;BME280;16320;53.954;9.506;2023-08-06T01:32:50;100700.66;;;15.68;100.00
29315;BME280;16320;53.954;9.506;2023-08-06T01:35:58;100699.16;;;15.64;100.00
29315;BME280;16320;53.954;9.506;2023-08-06T01:39:04;100696.84;;;15.59;100.00
29315;BME280;16320;53.954;9.506;2023-08-06T01:42:09;100684.59;;;15.58;100.00
29315;BME280;16320;53.954;9.506;2023-08-06T01:45:14;100682.06;;;15.56;100.00
29315;BME280;16320;53.954;9.506;2023-08-06T01:48:19;100686.38;;;15.57;100.00
29315;BME280;16320;53.954;9.506;2023-08-06T01:51:24;100683.72;;;15.57;100.00
29315;BME280;16320;53.954;9.506;2023-08-06T01:54:29;100668.06;;;15.54;100.00
29315;BME280;16320;53.954;9.506;2023-08-06T01:57:34;100671.91;;;15.50;100.00
29315;BME280;16320;53.954;9.506;2023-08-06T02:00:38;100674.44;;;15.52;100.00
29315;BME280;16320;53.954;9.506;2023-08-06T02:03:42;100668.28;;;15.51;100.00
29315;BME280;16320;53.954;9.506;2023-08-06T02:06:47;100657.81;;;15.50;100.00
29315;BME280;16320;53.954;9.506;2023-08-06T02:09:52;100663.25;;;15.48;100.00
29315;BME280;16320;53.954;9.506;2023-08-06T02:12:56;100663.00;;;15.51;100.00
29315;BME280;16320;53.954;9.506;2023-08-06T02:16:00;100668.28;;;15.51;100.00
29315;BME280;16320;53.954;9.506;2023-08-06T02:19:05;100663.00;;;15.51;100.00
29315;BME280;16320;53.954;9.506;2023-08-06T02:22:09;100666.41;;;15.53;100.00
29315;BME280;16320;53.954;9.506;2023-08-06T02:25:14;100674.63;;;15.62;100.00
29315;BME280;16320;53.954;9.506;2023-08-06T02:28:18;100670.28;;;15.61;100.00
29315;BME280;16320;53.954;9.506;2023-08-06T02:31:23;100676.78;;;15.56;100.00
29315;BME280;16320;53.954;9.506;2023-08-06T02:34:27;100666.50;;;15.52;100.00
29315;BME280;16320;53.954;9.506;2023-08-06T02:37:34;100669.50;;;15.47;100.00
29315;BME280;16320;53.954;9.506;2023-08-06T02:40:47;100668.53;;;15.48;100.00
29315;BME280;16320;53.954;9.506;2023-08-06T02:43:53;100670.22;;;15.49;100.00
29315;BME280;16320;53.954;9.506;2023-08-06T02:46:57;100664.91;;;15.49;100.00
29315;BME280;16320;53.954;9.506;2023-08-06T02:50:02;100657.97;;;15.48;100.00
29315;BME280;16320;53.954;9.506;2023-08-06T02:53:08;100654.56;;;15.46;100.00
29315;BME280;16320;53.954;9.506;2023-08-06T02:56:13;100653.72;;;15.46;100.00
29315;BME280;16320;53.954;9.506;2023-08-06T02:59:17;100660.19;;;15.42;100.00
29315;BME280;16320;53.954;9.506;2023-08-06T03:02:22;100653.31;;;15.39;100.00
29315;BME280;16320;53.954;9.506;2023-08-06T03:05:26;100647.81;;;15.42;100.00
29315;BME280;16320;53.954;9.506;2023-08-06T03:08:30;100643.47;;;15.41;100.00
29315;BME280;16320;53.954;9.506;2023-08-06T03:11:35;100643.47;;;15.41;100.00
29315;BME280;16320;53.954;9.506;2023-08-06T03:14:39;100638.19;;;15.41;100.00
29315;BME280;16320;53.954;9.506;2023-08-06T03:17:44;100637.22;;;15.42;100.00
29315;BME280;16320;53.954;9.506;2023-08-06T03:20:49;100631.94;;;15.42;100.00
29315;BME280;16320;53.954;9.506;2023-08-06T03:23:53;100634.47;;;15.44;100.00
29315;BME280;16320;53.954;9.506;2023-08-06T03:26:58;100628.94;;;15.47;100.00
29315;BME280;16320;53.954;9.506;2023-08-06T03:30:03;100637.63;;;15.49;100.00
29315;BME280;16320;53.954;9.506;2023-08-06T03:33:08;100627.59;;;15.41;100.00
29315;BME280;16320;53.954;9.506;2023-08-06T03:36:13;100633.59;;;15.43;100.00
29315;BME280;16320;53.954;9.506;2023-08-06T03:39:18;100631.31;;;15.38;100.00
29315;BME280;16320;53.954;9.506;2023-08-06T03:42:22;100639.13;;;15.40;100.00
29315;BME280;16320;53.954;9.506;2023-08-06T03:45:26;100628.03;;;15.35;100.00
29315;BME280;16320;53.954;9.506;2023-08-06T03:48:31;100629.00;;;15.34;100.00
29315;BME280;16320;53.954;9.506;2023-08-06T03:51:35;100621.56;;;15.39;100.00
29315;BME280;16320;53.954;9.506;2023-08-06T03:54:40;100621.06;;;15.34;100.00
29315;BME280;16320;53.954;9.506;2023-08-06T03:57:45;100615.56;;;15.37;100.00
29315;BME280;16320;53.954;9.506;2023-08-06T04:00:59;100615.03;;;15.32;100.00
29315;BME280;16320;53.954;9.506;2023-08-06T04:04:03;100615.88;;;15.32;100.00
29315;BME280;16320;53.954;9.506;2023-08-06T04:07:08;100606.63;;;15.38;100.00
29315;BME280;16320;53.954;9.506;2023-08-06T04:10:12;100605.81;;;15.37;100.00
29315;BME280;16320;53.954;9.506;2023-08-06T04:17:07;100597.03;;;15.37;100.00
29315;BME280;16320;53.954;9.506;2023-08-06T04:20:12;100591.75;;;15.37;100.00
29315;BME280;16320;53.954;9.506;2023-08-06T04:23:16;100592.06;;;15.32;100.00
29315;BME280;16320;53.954;9.506;2023-08-06T04:26:21;100595.34;;;15.36;100.00
29315;BME280;16320;53.954;9.506;2023-08-06T04:29:25;100607.25;;;15.42;100.00
29315;BME280;16320;53.954;9.506;2023-08-06T04:32:30;100603.16;;;15.37;100.00
29315;BME280;16320;53.954;9.506;2023-08-06T04:35:36;100608.22;;;15.41;100.00
29315;BME280;16320;53.954;9.506;2023-08-06T04:38:40;100606.09;;;15.46;100.00
29315;BME280;16320;53.954;9.506;2023-08-06T04:41:49;100611.00;;;15.39;100.00
29315;BME280;16320;53.954;9.506;2023-08-06T04:44:54;100615.13;;;15.30;100.00
29315;BME280;16320;53.954;9.506;2023-08-06T04:47:58;100618.16;;;15.26;100.00
29315;BME280;16320;53.954;9.506;2023-08-06T04:51:02;100624.66;;;15.33;100.00
29315;BME280;16320;53.954;9.506;2023-08-06T04:54:07;100625.50;;;15.33;100.00
29315;BME280;16320;53.954;9.506;2023-08-06T04:57:12;100617.16;;;15.27;100.00
29315;BME280;16320;53.954;9.506;2023-08-06T05:00:17;100622.69;;;15.24;100.00
29315;BME280;16320;53.954;9.506;2023-08-06T05:03:22;100613.28;;;15.19;100.00
29315;BME280;16320;53.954;9.506;2023-08-06T05:06:27;100611.47;;;15.20;100.00
29315;BME280;16320;53.954;9.506;2023-08-06T05:09:33;100626.25;;;15.35;100.00
29315;BME280;16320;53.954;9.506;2023-08-06T05:12:37;100622.84;;;15.33;100.00
29315;BME280;16320;53.954;9.506;2023-08-06T05:15:42;100621.28;;;15.31;100.00
29315;BME280;16320;53.954;9.506;2023-08-06T05:18:47;100613.78;;;15.25;100.00
29315;BME280;16320;53.954;9.506;2023-08-06T05:21:51;100612.31;;;15.20;100.00
29315;BME280;16320;53.954;9.506;2023-08-06T05:24:57;100613.78;;;15.25;100.00
29315;BME280;16320;53.954;9.506;2023-08-06T05:28:03;100618.38;;;15.23;100.00
29315;BME280;16320;53.954;9.506;2023-08-06T05:31:08;100618.16;;;15.26;100.00
29315;BME280;16320;53.954;9.506;2023-08-06T05:34:13;100618.66;;;15.31;100.00
29315;BME280;16320;53.954;9.506;2023-08-06T05:37:17;100617.38;;;15.24;100.00
29315;BME280;16320;53.954;9.506;2023-08-06T05:40:22;100630.41;;;15.27;100.00
29315;BME280;16320;53.954;9.506;2023-08-06T05:43:29;100611.88;;;15.27;100.00
29315;BME280;16320;53.954;9.506;2023-08-06T05:46:33;100612.22;;;15.22;100.00
29315;BME280;16320;53.954;9.506;2023-08-06T05:49:38;100601.72;;;15.20;100.00
29315;BME280;16320;53.954;9.506;2023-08-06T05:52:42;100607.91;;;15.21;100.00
29315;BME280;16320;53.954;9.506;2023-08-06T05:55:47;100601.13;;;15.17;100.00
29315;BME280;16320;53.954;9.506;2023-08-06T05:58:52;100603.53;;;15.20;100.00
29315;BME280;16320;53.954;9.506;2023-08-06T06:01:58;100594.16;;;15.16;100.00
29315;BME280;16320;53.954;9.506;2023-08-06T06:05:05;100594.78;;;15.19;100.00
29315;BME280;16320;53.954;9.506;2023-08-06T06:08:11;100580.81;;;15.17;100.00
29315;BME280;16320;53.954;9.506;2023-08-06T06:11:15;100578.19;;;15.17;100.00
29315;BME280;16320;53.954;9.506;2023-08-06T06:14:20;100576.03;;;15.23;100.00
29315;BME280;16320;53.954;9.506;2023-08-06T06:17:24;100579.28;;;15.26;100.00
29315;BME280;16320;53.954;9.506;2023-08-06T06:20:28;100579.91;;;15.30;100.00
29315;BME280;16320;53.954;9.506;2023-08-06T06:23:32;100586.03;;;15.30;100.00
29315;BME280;16320;53.954;9.506;2023-08-06T06:26:37;100581.16;;;15.37;100.00
29315;BME280;16320;53.954;9.506;2023-08-06T06:29:42;100595.59;;;15.44;100.00
29315;BME280;16320;53.954;9.506;2023-08-06T06:32:46;100596.31;;;15.46;100.00
29315;BME280;16320;53.954;9.506;2023-08-06T06:35:50;100594.66;;;15.45;100.00
29315;BME280;16320;53.954;9.506;2023-08-06T06:38:55;100592.34;;;15.41;100.00
29315;BME280;16320;53.954;9.506;2023-08-06T06:42:01;100598.03;;;15.47;100.00
29315;BME280;16320;53.954;9.506;2023-08-06T06:45:07;100605.28;;;15.56;100.00
29315;BME280;16320;53.954;9.506;2023-08-06T06:48:12;100591.69;;;15.61;100.00
29315;BME280;16320;53.954;9.506;2023-08-06T06:51:17;100596.66;;;15.66;100.00
29315;BME280;16320;53.954;9.506;2023-08-06T06:54:21;100603.63;;;15.67;100.00
29315;BME280;16320;53.954;9.506;2023-08-06T06:57:26;100599.19;;;15.67;100.00
29315;BME280;16320;53.954;9.506;2023-08-06T07:00:31;100601.94;;;15.66;100.00
29315;BME280;16320;53.954;9.506;2023-08-06T07:03:36;100602.81;;;15.66;100.00
29315;BME280;16320;53.954;9.506;2023-08-06T07:06:44;100609.75;;;15.67;100.00
29315;BME280;16320;53.954;9.506;2023-08-06T07:09:49;100610.16;;;15.74;100.00
29315;BME280;16320;53.954;9.506;2023-08-06T07:12:53;100607.72;;;15.71;100.00
29315;BME280;16320;53.954;9.506;2023-08-06T07:15:59;100609.38;;;15.61;100.00
29315;BME280;16320;53.954;9.506;2023-08-06T07:19:04;100616.38;;;15.62;100.00
29315;BME280;16320;53.954;9.506;2023-08-06T07:22:10;100618.53;;;15.56;100.00
29315;BME280;16320;53.954;9.506;2023-08-06T07:25:15;100621.69;;;15.62;100.00
29315;BME280;16320;53.954;9.506;2023-08-06T07:28:21;100618.69;;;15.66;100.00
29315;BME280;16320;53.954;9.506;2023-08-06T07:31:26;100618.19;;;15.72;100.00
29315;BME280;16320;53.954;9.506;2023-08-06T07:34:32;100626.25;;;15.71;100.00
29315;BME280;16320;53.954;9.506;2023-08-06T07:37:37;100620.44;;;15.79;100.00
29315;BME280;16320;53.954;9.506;2023-08-06T07:40:45;100619.97;;;15.85;100.00
29315;BME280;16320;53.954;9.506;2023-08-06T07:43:51;100619.13;;;15.84;100.00
29315;BME280;16320;53.954;9.506;2023-08-06T07:46:55;100619.25;;;15.83;100.00
29315;BME280;16320;53.954;9.506;2023-08-06T07:50:10;100627.69;;;15.88;100.00
29315;BME280;16320;53.954;9.506;2023-08-06T07:53:14;100619.84;;;15.86;100.00
29315;BME280;16320;53.954;9.506;2023-08-06T07:56:19;100630.00;;;15.92;100.00
29315;BME280;16320;53.954;9.506;2023-08-06T07:59:24;100632.91;;;16.01;100.00
29315;BME280;16320;53.954;9.506;2023-08-06T08:02:28;100638.91;;;16.03;100.00
29315;BME280;16320;53.954;9.506;2023-08-06T08:05:35;100643.28;;;16.04;100.00
29315;BME280;16320;53.954;9.506;2023-08-06T08:08:39;100647.47;;;16.06;100.00
29315;BME280;16320;53.954;9.506;2023-08-06T08:11:44;100656.16;;;16.08;100.00
29315;BME280;16320;53.954;9.506;2023-08-06T08:14:48;100652.66;;;16.08;100.00
29315;BME280;16320;53.954;9.506;2023-08-06T08:17:54;100659.44;;;16.12;100.00
29315;BME280;16320;53.954;9.506;2023-08-06T08:20:58;100670.63;;;16.16;100.00
29315;BME280;16320;53.954;9.506;2023-08-06T08:24:07;100674.09;;;16.16;100.00
29315;BME280;16320;53.954;9.506;2023-08-06T08:27:15;100668.34;;;16.22;100.00
29315;BME280;16320;53.954;9.506;2023-08-06T08:30:21;100674.88;;;16.29;100.00
29315;BME280;16320;53.954;9.506;2023-08-06T08:33:26;100678.13;;;16.33;100.00
29315;BME280;16320;53.954;9.506;2023-08-06T08:36:30;100669.56;;;16.41;100.00
29315;BME280;16320;53.954;9.506;2023-08-06T08:39:35;100662.50;;;16.41;100.00
29315;BME280;16320;53.954;9.506;2023-08-06T08:42:39;100661.63;;;16.41;100.00
29315;BME280;16320;53.954;9.506;2023-08-06T08:45:50;100659.47;;;16.46;100.00
29315;BME280;16320;53.954;9.506;2023-08-06T08:48:56;100659.25;;;16.49;100.00
29315;BME280;16320;53.954;9.506;2023-08-06T08:52:04;100649.84;;;16.56;100.00
29315;BME280;16320;53.954;9.506;2023-08-06T08:55:15;100658.03;;;16.64;100.00
29315;BME280;16320;53.954;9.506;2023-08-06T08:58:21;100653.81;;;16.62;100.00
29315;BME280;16320;53.954;9.506;2023-08-06T09:01:27;100647.66;;;16.61;100.00
29315;BME280;16320;53.954;9.506;2023-08-06T09:04:32;100643.59;;;16.57;100.00
29315;BME280;16320;53.954;9.506;2023-08-06T09:07:43;100641.66;;;16.59;100.00
29315;BME280;16320;53.954;9.506;2023-08-06T09:10:51;100644.78;;;16.64;100.00
29315;BME280;16320;53.954;9.506;2023-08-06T09:13:58;100639.59;;;16.63;100.00
29315;BME280;16320;53.954;9.506;2023-08-06T09:17:04;100637.66;;;16.65;100.00
29315;BME280;16320;53.954;9.506;2023-08-06T09:20:13;100630.81;;;16.62;100.00
29315;BME280;16320;53.954;9.506;2023-08-06T09:23:20;100630.22;;;16.59;100.00
29315;BME280;16320;53.954;9.506;2023-08-06T09:26:34;100636.34;;;16.59;100.00
29315;BME280;16320;53.954;9.506;2023-08-06T09:29:46;100634.06;;;16.55;100.00
29315;BME280;16320;53.954;9.506;2023-08-06T09:32:50;100632.88;;;16.59;100.00
29315;BME280;16320;53.954;9.506;2023-08-06T09:35:56;100626.47;;;16.61;100.00
29315;BME280;16320;53.954;9.506;2023-08-06T09:39:01;100626.47;;;16.61;100.00
29315;BME280;16320;53.954;9.506;2023-08-06T09:42:16;100622.84;;;16.62;100.00
29315;BME280;16320;53.954;9.506;2023-08-06T09:45:21;100619.84;;;16.56;100.00
29315;BME280;16320;53.954;9.506;2023-08-06T09:48:28;100623.56;;;16.53;100.00
29315;BME280;16320;53.954;9.506;2023-08-06T09:51:33;100626.69;;;16.58;100.00
29315;BME280;16320;53.954;9.506;2023-08-06T09:54:44;100634.53;;;16.60;100.00
29315;BME280;16320;53.954;9.506;2023-08-06T09:57:50;100640.94;;;16.57;100.00
29315;BME280;16320;53.954;9.506;2023-08-06T10:00:54;100648.38;;;16.63;100.00
29315;BME280;16320;53.954;9.506;2023-08-06T10:04:03;100648.63;;;16.60;100.00
29315;BME280;16320;53.954;9.506;2023-08-06T10:07:26;100650.78;;;16.66;100.00
29315;BME280;16320;53.954;9.506;2023-08-06T10:10:32;100651.66;;;16.67;100.00
29315;BME280;16320;53.954;9.506;2023-08-06T10:13:38;100655.75;;;16.71;100.00
29315;BME280;16320;53.954;9.506;2023-08-06T10:16:43;100664.53;;;16.72;100.00
29315;BME280;16320;53.954;9.506;2023-08-06T10:19:49;100667.94;;;16.74;100.00
29315;BME280;16320;53.954;9.506;2023-08-06T10:23:05;100677.78;;;16.83;100.00
29315;BME280;16320;53.954;9.506;2023-08-06T10:26:11;100675.91;;;16.85;100.00
29315;BME280;16320;53.954;9.506;2023-08-06T10:29:42;100685.31;;;16.89;100.00
29315;BME280;16320;53.954;9.506;2023-08-06T10:32:49;100679.28;;;16.87;100.00
29315;BME280;16320;53.954;9.506;2023-08-06T10:36:01;100693.03;;;16.92;100.00
29315;BME280;16320;53.954;9.506;2023-08-06T10:39:06;100696.03;;;16.99;100.00
29315;BME280;16320;53.954;9.506;2023-08-06T10:42:21;100697.63;;;17.01;100.00
29315;BME280;16320;53.954;9.506;2023-08-06T10:45:26;100700.75;;;17.07;100.00
29315;BME280;16320;53.954;9.506;2023-08-06T10:48:41;100697.13;;;17.08;100.00
29315;BME280;16320;53.954;9.506;2023-08-06T10:51:46;100705.69;;;17.11;100.00
29315;BME280;16320;53.954;9.506;2023-08-06T10:54:51;100704.84;;;17.11;100.00
29315;BME280;16320;53.954;9.506;2023-08-06T10:57:58;100706.63;;;17.10;100.00
29315;BME280;16320;53.954;9.506;2023-08-06T11:01:03;100705.56;;;17.13;100.00
29315;BME280;16320;53.954;9.506;2023-08-06T11:04:08;100701.31;;;17.22;100.00
29315;BME280;16320;53.954;9.506;2023-08-06T11:07:13;100696.72;;;17.24;100.00
29315;BME280;16320;53.954;9.506;2023-08-06T11:10:21;100694.19;;;17.22;100.00
29315;BME280;16320;53.954;9.506;2023-08-06T11:13:27;100698.66;;;17.22;100.00
29315;BME280;16320;53.954;9.506;2023-08-06T11:16:32;100698.56;;;17.12;100.00
29315;BME280;16320;53.954;9.506;2023-08-06T11:19:36;100691.59;;;17.11;100.00
29315;BME280;16320;53.954;9.506;2023-08-06T11:22:41;100689.28;;;17.06;100.00
29315;BME280;16320;53.954;9.506;2023-08-06T11:25:46;100681.22;;;17.08;100.00
29315;BME280;16320;53.954;9.506;2023-08-06T11:28:50;100675.91;;;17.08;100.00
29315;BME280;16320;53.954;9.506;2023-08-06T11:32:07;100689.88;;;17.10;100.00
29315;BME280;16320;53.954;9.506;2023-08-06T11:35:13;100686.28;;;17.11;100.00
29315;BME280;16320;53.954;9.506;2023-08-06T11:38:18;100694.47;;;17.08;100.00
29315;BME280;16320;53.954;9.506;2023-08-06T11:41:22;100691.44;;;17.01;100.00
29315;BME280;16320;53.954;9.506;2023-08-06T11:44:31;100690.38;;;17.04;100.00
29315;BME280;16320;53.954;9.506;2023-08-06T11:47:39;100698.09;;;16.95;100.00
29315;BME280;16320;53.954;9.506;2023-08-06T11:50:46;100687.72;;;16.92;100.00
29315;BME280;16320;53.954;9.506;2023-08-06T11:53:58;100681.69;;;16.90;100.00
29315;BME280;16320;53.954;9.506;2023-08-06T11:57:05;100676.53;;;16.89;100.00
29315;BME280;16320;53.954;9.506;2023-08-06T12:00:12;100678.91;;;16.80;100.00
29315;BME280;16320;53.954;9.506;2023-08-06T12:03:19;100676.38;;;16.79;100.00
29315;BME280;16320;53.954;9.506;2023-08-06T12:06:27;100681.09;;;16.87;100.00
29315;BME280;16320;53.954;9.506;2023-08-06T12:09:32;100676.75;;;16.86;100.00
29315;BME280;16320;53.954;9.506;2023-08-06T12:12:36;100683.09;;;16.83;100.00
29315;BME280;16320;53.954;9.506;2023-08-06T12:15:43;100686.75;;;16.82;100.00
29315;BME280;16320;53.954;9.506;2023-08-06T12:18:47;100681.31;;;16.72;100.00
29315;BME280;16320;53.954;9.506;2023-08-06T12:21:53;100682.16;;;16.73;100.00
29315;BME280;16320;53.954;9.506;2023-08-06T12:24:58;100680.44;;;16.72;100.00
29315;BME280;16320;53.954;9.506;2023-08-06T12:28:04;100685.50;;;16.75;100.00
29315;BME280;16320;53.954;9.506;2023-08-06T12:31:10;100682.25;;;16.71;100.00
29315;BME280;16320;53.954;9.506;2023-08-06T12:34:15;100686.25;;;16.65;100.00
29315;BME280;16320;53.954;9.506;2023-08-06T12:37:20;100681.91;;;16.64;100.00
29315;BME280;16320;53.954;9.506;2023-08-06T12:40:25;100686.84;;;16.69;100.00
29315;BME280;16320;53.954;9.506;2023-08-06T12:43:41;100686.03;;;16.69;100.00
29315;BME280;16320;53.954;9.506;2023-08-06T12:46:46;100697.81;;;16.76;100.00
29315;BME280;16320;53.954;9.506;2023-08-06T12:49:50;100701.44;;;16.75;100.00
29315;BME280;16320;53.954;9.506;2023-08-06T12:52:56;100702.88;;;16.79;100.00
29315;BME280;16320;53.954;9.506;2023-08-06T12:56:00;100699.28;;;16.80;100.00
29315;BME280;16320;53.954;9.506;2023-08-06T12:59:04;100706.78;;;16.86;100.00
29315;BME280;16320;53.954;9.506;2023-08-06T13:02:09;100708.13;;;16.92;100.00
29315;BME280;16320;53.954;9.506;2023-08-06T13:05:13;100717.38;;;16.97;100.00
29315;BME280;16320;53.954;9.506;2023-08-06T13:08:43;100719.91;;;16.99;100.00
29315;BME280;16320;53.954;9.506;2023-08-06T13:11:48;100718.13;;;17.11;100.00
29315;BME280;16320;53.954;9.506;2023-08-06T13:14:54;100728.47;;;17.14;100.00
29315;BME280;16320;53.954;9.506;2023-08-06T13:18:01;100731.75;;;17.17;100.00
29315;BME280;16320;53.954;9.506;2023-08-06T13:21:06;100731.88;;;17.05;100.00
29315;BME280;16320;53.954;9.506;2023-08-06T13:24:11;100741.25;;;17.09;100.00
29315;BME280;16320;53.954;9.506;2023-08-06T13:27:15;100737.88;;;17.07;100.00
29315;BME280;16320;53.954;9.506;2023-08-06T13:30:20;100737.41;;;17.13;100.00
29315;BME280;16320;53.954;9.506;2023-08-06T13:33:25;100739.09;;;17.14;100.00
29315;BME280;16320;53.954;9.506;2023-08-06T13:36:31;100739.81;;;17.16;100.00
29315;BME280;16320;53.954;9.506;2023-08-06T13:39:36;100738.34;;;17.23;100.00
29315;BME280;16320;53.954;9.506;2023-08-06T13:42:40;100760.81;;;17.30;100.00
29315;BME280;16320;53.954;9.506;2023-08-06T13:45:44;100752.34;;;17.25;100.00
29315;BME280;16320;53.954;9.506;2023-08-06T13:48:49;100748.38;;;17.31;100.00
29315;BME280;16320;53.954;9.506;2023-08-06T13:51:55;100748.25;;;17.32;100.00
29315;BME280;16320;53.954;9.506;2023-08-06T13:55:15;100750.53;;;17.37;100.00
29315;BME280;16320;53.954;9.506;2023-08-06T13:58:20;100753.06;;;17.38;100.00
29315;BME280;16320;53.954;9.506;2023-08-06T14:01:25;100750.44;;;17.27;100.00
29315;BME280;16320;53.954;9.506;2023-08-06T14:04:49;100753.81;;;17.29;100.00
29315;BME280;16320;53.954;9.506;2023-08-06T14:07:53;100754.75;;;17.28;100.00
29315;BME280;16320;53.954;9.506;2023-08-06T14:10:59;100751.88;;;17.31;100.00
29315;BME280;16320;53.954;9.506;2023-08-06T14:14:03;100751.28;;;17.28;100.00
29315;BME280;16320;53.954;9.506;2023-08-06T14:17:08;100747.28;;;17.33;100.00
29315;BME280;16320;53.954;9.506;2023-08-06T14:20:12;100755.00;;;17.36;100.00
29315;BME280;16320;53.954;9.506;2023-08-06T14:23:17;100751.97;;;17.41;100.00
29315;BME280;16320;53.954;9.506;2023-08-06T14:26:22;100758.00;;;17.43;100.00
29315;BME280;16320;53.954;9.506;2023-08-06T14:29:27;100755.72;;;17.50;100.00
29315;BME280;16320;53.954;9.506;2023-08-06T14:32:32;100755.19;;;17.56;100.00
29315;BME280;16320;53.954;9.506;2023-08-06T14:35:37;100748.81;;;17.59;100.00
29315;BME280;16320;53.954;9.506;2023-08-06T14:38:41;100746.53;;;17.54;100.00
29315;BME280;16320;53.954;9.506;2023-08-06T14:42:04;100743.63;;;17.46;100.00
29315;BME280;16320;53.954;9.506;2023-08-06T14:45:10;100739.31;;;17.33;100.00
29315;BME280;16320;53.954;9.506;2023-08-06T14:48:15;100737.63;;;17.32;100.00
29315;BME280;16320;53.954;9.506;2023-08-06T14:51:20;100733.75;;;17.36;100.00
29315;BME280;16320;53.954;9.506;2023-08-06T14:54:25;100732.31;;;17.32;100.00
29315;BME280;16320;53.954;9.506;2023-08-06T14:57:30;100730.13;;;17.37;100.00
29315;BME280;16320;53.954;9.506;2023-08-06T15:00:35;100724.00;;;17.37;100.00
29315;BME280;16320;53.954;9.506;2023-08-06T15:03:39;100725.31;;;17.31;100.00
29315;BME280;16320;53.954;9.506;2023-08-06T15:06:44;100724.59;;;17.41;100.00
29315;BME280;16320;53.954;9.506;2023-08-06T15:09:49;100724.84;;;17.37;100.00
29315;BME280;16320;53.954;9.506;2023-08-06T15:12:59;100729.66;;;17.44;100.00
29315;BME280;16320;53.954;9.506;2023-08-06T15:16:04;100731.31;;;17.45;100.00
29315;BME280;16320;53.954;9.506;2023-08-06T15:19:08;100739.78;;;17.50;100.00
29315;BME280;16320;53.954;9.506;2023-08-06T15:22:13;100731.94;;;17.48;100.00
29315;BME280;16320;53.954;9.506;2023-08-06T15:25:17;100727.84;;;17.44;100.00
29315;BME280;16320;53.954;9.506;2023-08-06T15:28:22;100733.50;;;17.39;100.00
29315;BME280;16320;53.954;9.506;2023-08-06T15:31:37;100721.22;;;17.38;100.00
29315;BME280;16320;53.954;9.506;2023-08-06T15:34:42;100721.81;;;17.42;100.00
29315;BME280;16320;53.954;9.506;2023-08-06T15:37:46;100720.34;;;17.38;100.00
29315;BME280;16320;53.954;9.506;2023-08-06T15:40:50;100711.44;;;17.39;100.00
29315;BME280;16320;53.954;9.506;2023-08-06T15:43:54;100713.72;;;17.44;100.00
29315;BME280;16320;53.954;9.506;2023-08-06T15:46:59;100723.00;;;17.49;100.00
29315;BME280;16320;53.954;9.506;2023-08-06T15:50:04;100718.25;;;17.53;100.00
29315;BME280;16320;53.954;9.506;2023-08-06T15:53:08;100712.22;;;17.62;100.00
29315;BME280;16320;53.954;9.506;2023-08-06T15:56:15;100702.09;;;17.56;100.00
29315;BME280;16320;53.954;9.506;2023-08-06T15:59:29;100713.19;;;17.61;100.00
29315;BME280;16320;53.954;9.506;2023-08-06T16:02:34;100713.94;;;17.52;100.00
29315;BME280;16320;53.954;9.506;2023-08-06T16:05:38;100717.31;;;17.54;100.00